KHKA

Details ICAO KHKA
Name BLYTHEVILLE MUNI
Region United States
Timezone America/Chicago (UTC-6.0)
Plans Departing 6
Arriving 3
Stats Elevation 255 ft / 78 m (AMSL)
Location 35.940407° -89.830806°
Runways 1
Magnetic Variation 1.542° W
Sunrise 2017-12-15 13:04:01 UTC / 2017-12-15 07:04:01 Local
Sunset 2017-12-15 22:47:58 UTC / 2017-12-15 16:47:58 Local
Advertisement - Login to hide

Runways

ID Width Length Bearing (true) Bearing (mag) Surface Threshold Offset Overrun Length
18 75 ft / 23 m 5,013 ft / 1,528 m 178.90° 180.44° Asphalt 0 ft / 0 m 0 ft / 0 m
36 75 ft / 23 m 5,013 ft / 1,528 m 358.90° 0.44° Asphalt 0 ft / 0 m 0 ft / 0 m

Map

Weather


0- 5 10 15 20 25 30 35+ Temperature / ° C

Clouds and Precipitation
Forecast for 2017-12-15 18:00 UTC. Updated an hour ago

Ground ~20,000 ft ~40,000 ft Winds

METAR

KHKA 151753Z AUTO 22009KT 10SM CLR 07/M02 A3018 RMK AO2 SLP223 T00721022 10072 21011 58015

TAF

Not found

Frequencies

Recorded 135.02 MHz ASOS
Approach 134.65 MHz MEMPHIS CNTR
Unicom 123.05 MHz CTAF/UNICOM
Warning: Do not use this data for real-world aviation or navigation. No guarantee of current accuracy is given.